sensor_id;sensor_type;location;lat;lon;timestamp;pressure;altitude;pressure_sealevel;temperature;humidity
59391;BME280;53405;57.012;40.984;2023-05-29T00:02:06;99883.69;;;11.35;88.93
59391;BME280;53405;57.012;40.984;2023-05-29T00:04:34;99884.78;;;11.41;89.88
59391;BME280;53405;57.012;40.984;2023-05-29T00:07:03;99886.53;;;11.55;89.79
59391;BME280;53405;57.012;40.984;2023-05-29T00:09:30;99890.16;;;11.54;88.56
59391;BME280;53405;57.012;40.984;2023-05-29T00:11:58;99891.31;;;11.45;88.88
59391;BME280;53405;57.012;40.984;2023-05-29T00:14:25;99905.78;;;11.34;89.72
59391;BME280;53405;57.012;40.984;2023-05-29T00:16:53;99905.88;;;11.41;89.23
59391;BME280;53405;57.012;40.984;2023-05-29T00:19:21;99901.94;;;11.36;89.33
59391;BME280;53405;57.012;40.984;2023-05-29T00:21:48;99905.59;;;11.35;90.30
59391;BME280;53405;57.012;40.984;2023-05-29T00:24:16;99903.78;;;11.36;91.16
59391;BME280;53405;57.012;40.984;2023-05-29T00:26:44;99906.78;;;11.33;89.72
59391;BME280;53405;57.012;40.984;2023-05-29T00:29:12;99911.38;;;11.46;89.54
59391;BME280;53405;57.012;40.984;2023-05-29T00:31:40;99882.44;;;11.16;90.31
59391;BME280;53405;57.012;40.984;2023-05-29T00:34:08;99906.97;;;11.31;91.28
59391;BME280;53405;57.012;40.984;2023-05-29T00:36:36;99908.44;;;11.34;90.51
59391;BME280;53405;57.012;40.984;2023-05-29T00:39:04;99920.94;;;11.47;89.99
59391;BME280;53405;57.012;40.984;2023-05-29T00:41:32;99916.03;;;11.44;89.91
59391;BME280;53405;57.012;40.984;2023-05-29T00:43:59;99935.78;;;11.48;88.94
59391;BME280;53405;57.012;40.984;2023-05-29T00:46:28;99933.50;;;11.45;88.96
59391;BME280;53405;57.012;40.984;2023-05-29T00:48:58;99923.34;;;11.27;90.40
59391;BME280;53405;57.012;40.984;2023-05-29T00:51:29;99947.13;;;11.48;89.65
59391;BME280;53405;57.012;40.984;2023-05-29T00:54:00;99957.84;;;11.47;89.83
59391;BME280;53405;57.012;40.984;2023-05-29T00:56:28;99958.22;;;11.44;90.19
59391;BME280;53405;57.012;40.984;2023-05-29T00:58:56;99965.78;;;11.32;90.37
59391;BME280;53405;57.012;40.984;2023-05-29T01:01:24;99965.03;;;11.38;90.56
59391;BME280;53405;57.012;40.984;2023-05-29T01:03:55;99974.50;;;11.47;89.90
59391;BME280;53405;57.012;40.984;2023-05-29T01:06:24;99969.94;;;11.41;91.80
59391;BME280;53405;57.012;40.984;2023-05-29T01:08:52;99964.78;;;11.48;90.59
59391;BME280;53405;57.012;40.984;2023-05-29T01:11:57;99956.69;;;11.34;92.29
59391;BME280;53405;57.012;40.984;2023-05-29T01:14:36;99962.03;;;11.41;91.19
59391;BME280;53405;57.012;40.984;2023-05-29T01:20:03;99963.78;;;11.19;92.41
59391;BME280;53405;57.012;40.984;2023-05-29T01:28:27;99967.78;;;11.30;90.25
59391;BME280;53405;57.012;40.984;2023-05-29T01:31:00;99973.59;;;11.25;91.82
59391;BME280;53405;57.012;40.984;2023-05-29T01:33:30;99940.78;;;11.13;91.70
59391;BME280;53405;57.012;40.984;2023-05-29T01:35:58;99956.16;;;11.24;91.64
59391;BME280;53405;57.012;40.984;2023-05-29T01:38:25;99979.25;;;11.37;90.58
59391;BME280;53405;57.012;40.984;2023-05-29T01:40:53;99973.69;;;11.47;89.65
59391;BME280;53405;57.012;40.984;2023-05-29T01:43:21;99973.78;;;11.38;91.00
59391;BME280;53405;57.012;40.984;2023-05-29T01:45:49;99988.22;;;11.43;89.47
59391;BME280;53405;57.012;40.984;2023-05-29T01:48:17;99977.56;;;11.51;88.63
59391;BME280;53405;57.012;40.984;2023-05-29T01:50:45;99992.41;;;11.52;88.19
59391;BME280;53405;57.012;40.984;2023-05-29T01:53:14;99999.69;;;11.50;89.11
59391;BME280;53405;57.012;40.984;2023-05-29T01:55:43;99992.94;;;11.47;90.21
59391;BME280;53405;57.012;40.984;2023-05-29T01:58:11;99980.13;;;11.44;88.74
59391;BME280;53405;57.012;40.984;2023-05-29T02:00:40;99996.88;;;11.51;89.42
59391;BME280;53405;57.012;40.984;2023-05-29T02:03:09;99981.22;;;11.50;88.51
59391;BME280;53405;57.012;40.984;2023-05-29T02:05:38;99991.47;;;11.60;87.72
59391;BME280;53405;57.012;40.984;2023-05-29T02:08:05;99978.03;;;11.54;86.10
59391;BME280;53405;57.012;40.984;2023-05-29T02:10:33;99996.50;;;11.39;88.35
59391;BME280;53405;57.012;40.984;2023-05-29T02:13:01;99990.56;;;11.52;86.47
59391;BME280;53405;57.012;40.984;2023-05-29T02:15:29;100000.56;;;11.57;86.33
59391;BME280;53405;57.012;40.984;2023-05-29T02:17:57;100007.38;;;11.66;85.67
59391;BME280;53405;57.012;40.984;2023-05-29T02:20:25;100003.69;;;11.61;86.08
59391;BME280;53405;57.012;40.984;2023-05-29T02:22:53;100003.69;;;11.61;85.10
59391;BME280;53405;57.012;40.984;2023-05-29T02:25:20;100009.31;;;11.57;85.53
59391;BME280;53405;57.012;40.984;2023-05-29T02:27:48;100028.41;;;11.60;85.71
59391;BME280;53405;57.012;40.984;2023-05-29T02:30:15;99994.22;;;11.51;85.02
59391;BME280;53405;57.012;40.984;2023-05-29T02:32:43;100027.84;;;11.64;86.16
59391;BME280;53405;57.012;40.984;2023-05-29T02:35:11;100027.31;;;11.69;85.07
59391;BME280;53405;57.012;40.984;2023-05-29T02:37:41;100033.75;;;11.81;84.79
59391;BME280;53405;57.012;40.984;2023-05-29T02:40:09;100031.72;;;11.83;84.52
59391;BME280;53405;57.012;40.984;2023-05-29T02:42:38;100031.28;;;11.95;83.13
59391;BME280;53405;57.012;40.984;2023-05-29T02:45:06;100039.38;;;12.08;82.81
59391;BME280;53405;57.012;40.984;2023-05-29T02:47:35;100039.25;;;12.16;81.12
59391;BME280;53405;57.012;40.984;2023-05-29T02:50:04;100038.63;;;12.14;81.61
59391;BME280;53405;57.012;40.984;2023-05-29T02:52:32;100030.53;;;12.16;81.60
59391;BME280;53405;57.012;40.984;2023-05-29T02:55:00;100043.06;;;12.14;80.77
59391;BME280;53405;57.012;40.984;2023-05-29T02:57:30;100033.91;;;12.31;79.20
59391;BME280;53405;57.012;40.984;2023-05-29T02:59:58;100044.16;;;12.19;79.97
59391;BME280;53405;57.012;40.984;2023-05-29T03:02:26;100046.84;;;12.26;80.11
59391;BME280;53405;57.012;40.984;2023-05-29T03:04:54;100052.88;;;12.20;80.37
59391;BME280;53405;57.012;40.984;2023-05-29T03:07:21;100053.72;;;12.20;81.38
59391;BME280;53405;57.012;40.984;2023-05-29T03:09:49;100067.97;;;12.26;80.17
59391;BME280;53405;57.012;40.984;2023-05-29T03:12:17;100065.59;;;12.31;79.68
59391;BME280;53405;57.012;40.984;2023-05-29T03:14:46;100078.75;;;12.46;78.53
59391;BME280;53405;57.012;40.984;2023-05-29T03:17:13;100081.34;;;12.39;77.37
59391;BME280;53405;57.012;40.984;2023-05-29T03:19:41;100066.41;;;12.32;77.47
59391;BME280;53405;57.012;40.984;2023-05-29T03:22:09;100091.78;;;12.47;77.81
59391;BME280;53405;57.012;40.984;2023-05-29T03:24:38;100090.69;;;12.42;77.69
59391;BME280;53405;57.012;40.984;2023-05-29T03:27:06;100092.53;;;12.63;74.34
59391;BME280;53405;57.012;40.984;2023-05-29T03:29:35;100099.19;;;12.59;76.51
59391;BME280;53405;57.012;40.984;2023-05-29T03:32:03;100097.31;;;12.53;76.37
59391;BME280;53405;57.012;40.984;2023-05-29T03:34:33;100099.50;;;12.71;75.42
59391;BME280;53405;57.012;40.984;2023-05-29T03:37:03;100110.72;;;12.73;74.24
59391;BME280;53405;57.012;40.984;2023-05-29T03:39:31;100112.31;;;12.74;75.55
59391;BME280;53405;57.012;40.984;2023-05-29T03:41:59;100114.34;;;12.93;74.22
59391;BME280;53405;57.012;40.984;2023-05-29T03:44:28;100109.97;;;12.79;74.80
59391;BME280;53405;57.012;40.984;2023-05-29T03:46:57;100124.78;;;12.80;74.83
59391;BME280;53405;57.012;40.984;2023-05-29T03:49:25;100122.28;;;12.93;72.30
59391;BME280;53405;57.012;40.984;2023-05-29T03:51:53;100123.91;;;12.94;72.59
59391;BME280;53405;57.012;40.984;2023-05-29T03:54:20;100132.59;;;12.88;72.14
59391;BME280;53405;57.012;40.984;2023-05-29T03:56:49;100143.84;;;12.97;71.49
59391;BME280;53405;57.012;40.984;2023-05-29T03:59:17;100131.44;;;12.97;71.69
59391;BME280;53405;57.012;40.984;2023-05-29T04:01:47;100145.56;;;13.05;70.30
59391;BME280;53405;57.012;40.984;2023-05-29T04:04:14;100144.47;;;12.99;69.48
59391;BME280;53405;57.012;40.984;2023-05-29T04:06:42;100152.34;;;13.14;69.88
59391;BME280;53405;57.012;40.984;2023-05-29T04:09:09;100145.06;;;13.23;71.29
59391;BME280;53405;57.012;40.984;2023-05-29T04:11:37;100152.06;;;13.30;69.68
59391;BME280;53405;57.012;40.984;2023-05-29T04:14:06;100148.41;;;13.31;69.62
59391;BME280;53405;57.012;40.984;2023-05-29T04:16:34;100160.09;;;13.37;69.33
59391;BME280;53405;57.012;40.984;2023-05-29T04:19:01;100154.19;;;13.42;68.52
59391;BME280;53405;57.012;40.984;2023-05-29T04:21:31;100150.16;;;13.46;68.79
59391;BME280;53405;57.012;40.984;2023-05-29T04:24:00;100153.94;;;13.58;68.56
59391;BME280;53405;57.012;40.984;2023-05-29T04:26:29;100157.38;;;13.59;69.04
59391;BME280;53405;57.012;40.984;2023-05-29T04:28:59;100148.06;;;13.63;66.53
59391;BME280;53405;57.012;40.984;2023-05-29T04:31:27;100167.22;;;13.71;66.22
59391;BME280;53405;57.012;40.984;2023-05-29T04:33:55;100177.72;;;13.86;65.16
59391;BME280;53405;57.012;40.984;2023-05-29T04:36:24;100178.72;;;13.85;65.65
59391;BME280;53405;57.012;40.984;2023-05-29T04:39:05;100187.13;;;13.96;64.50
59391;BME280;53405;57.012;40.984;2023-05-29T04:41:34;100185.91;;;13.98;64.52
59391;BME280;53405;57.012;40.984;2023-05-29T04:44:04;100172.66;;;13.91;63.81
59391;BME280;53405;57.012;40.984;2023-05-29T04:46:43;100195.56;;;14.13;65.12
59391;BME280;53405;57.012;40.984;2023-05-29T04:49:15;100197.88;;;14.29;63.38
59391;BME280;53405;57.012;40.984;2023-05-29T04:51:43;100197.09;;;14.28;64.12
59391;BME280;53405;57.012;40.984;2023-05-29T04:54:11;100194.84;;;14.32;63.93
59391;BME280;53405;57.012;40.984;2023-05-29T04:56:40;100199.78;;;14.42;62.94
59391;BME280;53405;57.012;40.984;2023-05-29T04:59:11;100210.19;;;14.50;62.12
59391;BME280;53405;57.012;40.984;2023-05-29T05:01:38;100207.16;;;14.53;60.53
59391;BME280;53405;57.012;40.984;2023-05-29T05:04:06;100220.69;;;14.72;61.85
59391;BME280;53405;57.012;40.984;2023-05-29T05:06:34;100230.53;;;14.91;61.48
59391;BME280;53405;57.012;40.984;2023-05-29T05:09:02;100216.84;;;14.81;58.29
59391;BME280;53405;57.012;40.984;2023-05-29T05:11:30;100237.06;;;14.89;59.57
59391;BME280;53405;57.012;40.984;2023-05-29T05:13:59;100240.38;;;15.04;58.46
59391;BME280;53405;57.012;40.984;2023-05-29T05:16:27;100247.50;;;15.04;58.01
59391;BME280;53405;57.012;40.984;2023-05-29T05:18:55;100251.13;;;14.96;58.99
59391;BME280;53405;57.012;40.984;2023-05-29T05:21:23;100251.59;;;14.99;58.99
59391;BME280;53405;57.012;40.984;2023-05-29T05:23:51;100258.13;;;15.17;60.01
59391;BME280;53405;57.012;40.984;2023-05-29T05:26:23;100268.97;;;15.22;58.75
59391;BME280;53405;57.012;40.984;2023-05-29T05:28:53;100262.66;;;15.43;57.44
59391;BME280;53405;57.012;40.984;2023-05-29T05:31:23;100262.44;;;15.38;58.91
59391;BME280;53405;57.012;40.984;2023-05-29T05:33:51;100270.81;;;15.42;55.98
59391;BME280;53405;57.012;40.984;2023-05-29T05:36:19;100263.69;;;15.49;56.33
59391;BME280;53405;57.012;40.984;2023-05-29T05:38:52;100273.28;;;15.57;57.85
59391;BME280;53405;57.012;40.984;2023-05-29T05:41:21;100271.63;;;15.62;57.00
59391;BME280;53405;57.012;40.984;2023-05-29T05:43:50;100270.41;;;15.71;55.46
59391;BME280;53405;57.012;40.984;2023-05-29T05:46:47;100253.66;;;15.44;56.06
59391;BME280;53405;57.012;40.984;2023-05-29T05:49:15;100282.28;;;15.82;54.74
59391;BME280;53405;57.012;40.984;2023-05-29T05:51:42;100270.22;;;15.73;55.64
59391;BME280;53405;57.012;40.984;2023-05-29T05:54:11;100290.47;;;15.94;55.38
59391;BME280;53405;57.012;40.984;2023-05-29T05:56:39;100293.91;;;16.08;54.80
59391;BME280;53405;57.012;40.984;2023-05-29T05:59:09;100296.75;;;16.06;55.03
59391;BME280;53405;57.012;40.984;2023-05-29T06:01:37;100293.06;;;16.14;54.54
59391;BME280;53405;57.012;40.984;2023-05-29T06:04:05;100311.47;;;16.22;53.41
59391;BME280;53405;57.012;40.984;2023-05-29T06:06:34;100307.59;;;16.18;53.42
59391;BME280;53405;57.012;40.984;2023-05-29T06:09:02;100303.69;;;16.28;51.27
59391;BME280;53405;57.012;40.984;2023-05-29T06:11:32;100306.34;;;16.28;54.13
59391;BME280;53405;57.012;40.984;2023-05-29T06:14:00;100301.59;;;16.36;51.52
59391;BME280;53405;57.012;40.984;2023-05-29T06:16:29;100304.06;;;16.38;53.20
59391;BME280;53405;57.012;40.984;2023-05-29T06:18:57;100301.38;;;16.51;52.13
59391;BME280;53405;57.012;40.984;2023-05-29T06:21:27;100302.53;;;16.69;51.39
59391;BME280;53405;57.012;40.984;2023-05-29T06:23:56;100305.97;;;16.89;49.61
59391;BME280;53405;57.012;40.984;2023-05-29T06:26:24;100300.44;;;16.91;47.43
59391;BME280;53405;57.012;40.984;2023-05-29T06:28:54;100300.81;;;16.94;48.42
59391;BME280;53405;57.012;40.984;2023-05-29T06:31:22;100317.00;;;16.93;46.28
59391;BME280;53405;57.012;40.984;2023-05-29T06:33:50;100318.75;;;17.06;46.24
59391;BME280;53405;57.012;40.984;2023-05-29T06:36:19;100315.16;;;16.87;45.71
59391;BME280;53405;57.012;40.984;2023-05-29T06:38:47;100307.19;;;16.93;47.97
59391;BME280;53405;57.012;40.984;2023-05-29T06:41:16;100321.63;;;17.11;46.83
59391;BME280;53405;57.012;40.984;2023-05-29T06:43:44;100318.72;;;17.19;45.44
59391;BME280;53405;57.012;40.984;2023-05-29T06:46:14;100320.56;;;17.19;46.20
59391;BME280;53405;57.012;40.984;2023-05-29T06:48:42;100320.13;;;17.22;46.27
59391;BME280;53405;57.012;40.984;2023-05-29T06:51:10;100321.56;;;17.18;44.06
59391;BME280;53405;57.012;40.984;2023-05-29T06:53:39;100338.09;;;17.33;43.74
59391;BME280;53405;57.012;40.984;2023-05-29T06:56:11;100329.94;;;17.21;43.08
59391;BME280;53405;57.012;40.984;2023-05-29T06:58:39;100332.75;;;17.33;43.22
59391;BME280;53405;57.012;40.984;2023-05-29T07:04:26;100322.59;;;17.48;42.40
59391;BME280;53405;57.012;40.984;2023-05-29T07:06:53;100331.97;;;17.58;40.84
59391;BME280;53405;57.012;40.984;2023-05-29T07:09:21;100303.81;;;17.43;40.98
59391;BME280;53405;57.012;40.984;2023-05-29T07:11:49;100337.59;;;17.75;39.16
59391;BME280;53405;57.012;40.984;2023-05-29T07:14:17;100342.19;;;17.86;40.48
59391;BME280;53405;57.012;40.984;2023-05-29T07:16:44;100342.28;;;18.04;38.68
59391;BME280;53405;57.012;40.984;2023-05-29T07:19:13;100336.59;;;18.01;41.74
59391;BME280;53405;57.012;40.984;2023-05-29T07:21:41;100339.06;;;17.96;40.25
59391;BME280;53405;57.012;40.984;2023-05-29T07:24:09;100345.16;;;18.03;40.86
59391;BME280;53405;57.012;40.984;2023-05-29T07:26:36;100328.25;;;18.16;40.62
59391;BME280;53405;57.012;40.984;2023-05-29T07:29:04;100336.94;;;18.30;40.02
59391;BME280;53405;57.012;40.984;2023-05-29T07:31:32;100345.63;;;18.44;39.65
59391;BME280;53405;57.012;40.984;2023-05-29T07:34:02;100329.25;;;18.40;37.33
59391;BME280;53405;57.012;40.984;2023-05-29T07:36:30;100334.63;;;18.33;39.06
59391;BME280;53405;57.012;40.984;2023-05-29T07:39:03;100349.47;;;18.66;37.53
59391;BME280;53405;57.012;40.984;2023-05-29T07:41:33;100355.16;;;18.70;38.57
59391;BME280;53405;57.012;40.984;2023-05-29T07:44:00;100354.03;;;18.77;40.04
59391;BME280;53405;57.012;40.984;2023-05-29T07:46:30;100362.06;;;18.96;37.99
59391;BME280;53405;57.012;40.984;2023-05-29T07:49:17;100351.78;;;18.81;39.40
59391;BME280;53405;57.012;40.984;2023-05-29T07:51:45;100360.00;;;18.98;37.76
59391;BME280;53405;57.012;40.984;2023-05-29T07:54:12;100374.16;;;18.99;39.08
59391;BME280;53405;57.012;40.984;2023-05-29T07:56:40;100360.63;;;19.12;37.49
59391;BME280;53405;57.012;40.984;2023-05-29T07:59:08;100364.09;;;19.31;36.47
59391;BME280;53405;57.012;40.984;2023-05-29T08:01:37;100354.94;;;19.39;37.14
59391;BME280;53405;57.012;40.984;2023-05-29T08:04:06;100376.94;;;19.53;35.17
59391;BME280;53405;57.012;40.984;2023-05-29T08:06:34;100366.41;;;19.27;37.08
59391;BME280;53405;57.012;40.984;2023-05-29T08:09:04;100357.06;;;19.18;33.36
59391;BME280;53405;57.012;40.984;2023-05-29T08:11:32;100374.13;;;19.17;36.64
59391;BME280;53405;57.012;40.984;2023-05-29T08:14:00;100375.31;;;19.21;35.80
59391;BME280;53405;57.012;40.984;2023-05-29T08:16:28;100386.28;;;19.31;39.29
59391;BME280;53405;57.012;40.984;2023-05-29T08:18:56;100378.88;;;19.45;36.10
59391;BME280;53405;57.012;40.984;2023-05-29T08:21:23;100380.09;;;19.61;38.18
59391;BME280;53405;57.012;40.984;2023-05-29T08:23:52;100381.69;;;19.93;36.97
59391;BME280;53405;57.012;40.984;2023-05-29T08:26:19;100389.84;;;19.98;35.65
59391;BME280;53405;57.012;40.984;2023-05-29T08:28:48;100376.13;;;20.18;34.92
59391;BME280;53405;57.012;40.984;2023-05-29T08:31:16;100389.03;;;20.56;36.79
59391;BME280;53405;57.012;40.984;2023-05-29T08:33:43;100378.81;;;20.77;37.93
59391;BME280;53405;57.012;40.984;2023-05-29T08:36:11;100379.53;;;21.01;35.21
59391;BME280;53405;57.012;40.984;2023-05-29T08:38:39;100376.84;;;21.42;33.93
59391;BME280;53405;57.012;40.984;2023-05-29T08:41:07;100381.84;;;21.67;32.15
59391;BME280;53405;57.012;40.984;2023-05-29T08:43:37;100368.50;;;21.55;32.40
59391;BME280;53405;57.012;40.984;2023-05-29T08:46:06;100383.91;;;21.94;32.08
59391;BME280;53405;57.012;40.984;2023-05-29T08:48:38;100381.22;;;22.11;31.06
59391;BME280;53405;57.012;40.984;2023-05-29T08:51:07;100389.88;;;22.52;29.97
59391;BME280;53405;57.012;40.984;2023-05-29T08:53:37;100397.13;;;22.17;30.36
59391;BME280;53405;57.012;40.984;2023-05-29T08:56:06;100400.88;;;22.33;29.62
59391;BME280;53405;57.012;40.984;2023-05-29T08:58:34;100387.13;;;22.47;29.46
59391;BME280;53405;57.012;40.984;2023-05-29T09:01:02;100358.44;;;22.47;30.91
59391;BME280;53405;57.012;40.984;2023-05-29T09:03:30;100386.84;;;22.87;32.27
59391;BME280;53405;57.012;40.984;2023-05-29T09:05:59;100397.25;;;23.55;32.10
59391;BME280;53405;57.012;40.984;2023-05-29T09:08:27;100382.09;;;23.44;30.01
59391;BME280;53405;57.012;40.984;2023-05-29T09:10:55;100387.69;;;23.92;28.37
59391;BME280;53405;57.012;40.984;2023-05-29T09:13:24;100396.56;;;23.92;29.94
59391;BME280;53405;57.012;40.984;2023-05-29T09:16:00;100382.31;;;23.92;30.45
59391;BME280;53405;57.012;40.984;2023-05-29T09:18:31;100376.97;;;24.02;30.17
59391;BME280;53405;57.012;40.984;2023-05-29T09:20:59;100381.97;;;24.21;27.86
59391;BME280;53405;57.012;40.984;2023-05-29T09:23:28;100401.16;;;23.97;29.80
59391;BME280;53405;57.012;40.984;2023-05-29T09:25:56;100383.63;;;23.62;31.52
59391;BME280;53405;57.012;40.984;2023-05-29T09:28:24;100375.00;;;23.60;30.75
59391;BME280;53405;57.012;40.984;2023-05-29T09:30:53;100366.25;;;23.70;28.93
59391;BME280;53405;57.012;40.984;2023-05-29T09:33:20;100373.06;;;23.55;30.31
59391;BME280;53405;57.012;40.984;2023-05-29T09:35:49;100389.31;;;23.66;28.38
59391;BME280;53405;57.012;40.984;2023-05-29T09:38:19;100365.38;;;23.64;27.99
59391;BME280;53405;57.012;40.984;2023-05-29T09:40:54;100379.28;;;23.56;29.79
59391;BME280;53405;57.012;40.984;2023-05-29T09:43:30;100380.56;;;24.13;28.47
59391;BME280;53405;57.012;40.984;2023-05-29T09:45:58;100387.13;;;24.32;28.33
59391;BME280;53405;57.012;40.984;2023-05-29T09:48:25;100385.00;;;24.34;26.72
59391;BME280;53405;57.012;40.984;2023-05-29T09:50:53;100380.44;;;24.40;28.28
59391;BME280;53405;57.012;40.984;2023-05-29T09:53:23;100377.25;;;24.43;28.75
59391;BME280;53405;57.012;40.984;2023-05-29T09:55:55;100377.63;;;24.20;31.56
59391;BME280;53405;57.012;40.984;2023-05-29T09:58:24;100387.22;;;24.43;28.49
59391;BME280;53405;57.012;40.984;2023-05-29T10:00:52;100380.78;;;25.07;26.68
59391;BME280;53405;57.012;40.984;2023-05-29T10:03:21;100386.91;;;24.92;26.55
59391;BME280;53405;57.012;40.984;2023-05-29T10:05:51;100382.00;;;24.74;26.49
59391;BME280;53405;57.012;40.984;2023-05-29T10:08:20;100361.47;;;24.62;27.19
59391;BME280;53405;57.012;40.984;2023-05-29T10:11:09;100390.94;;;24.37;26.21
59391;BME280;53405;57.012;40.984;2023-05-29T10:13:42;100391.75;;;23.99;28.24
59391;BME280;53405;57.012;40.984;2023-05-29T10:16:20;100394.00;;;23.80;29.74
59391;BME280;53405;57.012;40.984;2023-05-29T10:18:55;100384.25;;;24.44;29.07
59391;BME280;53405;57.012;40.984;2023-05-29T10:21:27;100396.16;;;25.27;26.93
59391;BME280;53405;57.012;40.984;2023-05-29T10:23:56;100387.72;;;24.93;25.69
59391;BME280;53405;57.012;40.984;2023-05-29T10:26:25;100390.69;;;24.43;26.73
59391;BME280;53405;57.012;40.984;2023-05-29T10:37:18;100374.44;;;24.23;27.47
59391;BME280;53405;57.012;40.984;2023-05-29T10:39:48;100360.94;;;24.60;26.97
59391;BME280;53405;57.012;40.984;2023-05-29T10:45:09;100357.97;;;25.40;25.60
59391;BME280;53405;57.012;40.984;2023-05-29T10:47:39;100376.03;;;25.76;26.51
59391;BME280;53405;57.012;40.984;2023-05-29T10:50:06;100372.81;;;26.10;25.16
59391;BME280;53405;57.012;40.984;2023-05-29T10:52:34;100377.38;;;26.30;25.35
59391;BME280;53405;57.012;40.984;2023-05-29T10:55:02;100381.69;;;26.26;23.76
59391;BME280;53405;57.012;40.984;2023-05-29T10:57:31;100378.44;;;26.29;24.14
59391;BME280;53405;57.012;40.984;2023-05-29T11:00:04;100377.84;;;26.53;25.25
59391;BME280;53405;57.012;40.984;2023-05-29T11:02:47;100379.47;;;26.43;23.86
59391;BME280;53405;57.012;40.984;2023-05-29T11:05:22;100380.81;;;26.66;23.08
59391;BME280;53405;57.012;40.984;2023-05-29T11:08:01;100382.28;;;26.98;22.40
59391;BME280;53405;57.012;40.984;2023-05-29T11:13:35;100372.81;;;26.10;26.36
59391;BME280;53405;57.012;40.984;2023-05-29T11:19:08;100386.56;;;26.13;24.08
59391;BME280;53405;57.012;40.984;2023-05-29T11:22:00;100380.38;;;25.98;23.49
59391;BME280;53405;57.012;40.984;2023-05-29T11:24:34;100363.56;;;26.42;23.13
59391;BME280;53405;57.012;40.984;2023-05-29T11:27:05;100384.06;;;26.38;24.59
59391;BME280;53405;57.012;40.984;2023-05-29T11:29:35;100375.91;;;26.74;25.37
59391;BME280;53405;57.012;40.984;2023-05-29T11:32:06;100381.38;;;27.13;23.04
59391;BME280;53405;57.012;40.984;2023-05-29T11:34:40;100375.22;;;27.02;22.55
59391;BME280;53405;57.012;40.984;2023-05-29T11:37:08;100372.06;;;26.85;24.78
59391;BME280;53405;57.012;40.984;2023-05-29T11:39:37;100355.84;;;26.85;24.46
59391;BME280;53405;57.012;40.984;2023-05-29T11:42:06;100336.50;;;26.57;24.08
59391;BME280;53405;57.012;40.984;2023-05-29T11:44:34;100357.66;;;26.29;24.29
59391;BME280;53405;57.012;40.984;2023-05-29T11:47:04;100353.53;;;26.68;24.24
59391;BME280;53405;57.012;40.984;2023-05-29T11:49:34;100354.88;;;27.15;22.93
59391;BME280;53405;57.012;40.984;2023-05-29T11:52:08;100331.81;;;26.89;22.31
59391;BME280;53405;57.012;40.984;2023-05-29T11:54:41;100355.09;;;26.79;23.26
59391;BME280;53405;57.012;40.984;2023-05-29T11:57:20;100351.91;;;26.67;23.28
59391;BME280;53405;57.012;40.984;2023-05-29T11:59:51;100353.41;;;26.83;22.91
59391;BME280;53405;57.012;40.984;2023-05-29T12:02:20;100355.13;;;26.74;23.05
59391;BME280;53405;57.012;40.984;2023-05-29T12:05:06;100353.28;;;26.54;23.58
59391;BME280;53405;57.012;40.984;2023-05-29T12:07:36;100345.38;;;26.73;24.02
59391;BME280;53405;57.012;40.984;2023-05-29T12:10:15;100349.25;;;27.07;23.07
59391;BME280;53405;57.012;40.984;2023-05-29T12:12:55;100347.53;;;26.76;23.35
59391;BME280;53405;57.012;40.984;2023-05-29T12:15:23;100348.91;;;26.63;23.03
59391;BME280;53405;57.012;40.984;2023-05-29T12:17:51;100333.81;;;26.57;23.20
59391;BME280;53405;57.012;40.984;2023-05-29T12:20:23;100350.09;;;26.37;23.72
59391;BME280;53405;57.012;40.984;2023-05-29T12:22:59;100345.31;;;25.98;23.08
59391;BME280;53405;57.012;40.984;2023-05-29T12:25:28;100348.72;;;25.16;24.97
59391;BME280;53405;57.012;40.984;2023-05-29T12:27:56;100334.72;;;25.09;24.90
59391;BME280;53405;57.012;40.984;2023-05-29T12:30:25;100327.28;;;24.10;27.90
59391;BME280;53405;57.012;40.984;2023-05-29T12:32:56;100347.41;;;24.02;26.69
59391;BME280;53405;57.012;40.984;2023-05-29T12:35:28;100341.94;;;23.59;27.96
59391;BME280;53405;57.012;40.984;2023-05-29T12:40:29;100330.31;;;23.21;28.32
59391;BME280;53405;57.012;40.984;2023-05-29T12:42:59;100319.88;;;23.25;27.93
59391;BME280;53405;57.012;40.984;2023-05-29T12:45:30;100324.44;;;23.24;29.45
59391;BME280;53405;57.012;40.984;2023-05-29T12:50:39;100319.78;;;23.15;28.00
59391;BME280;53405;57.012;40.984;2023-05-29T12:53:12;100324.78;;;22.84;29.68
59391;BME280;53405;57.012;40.984;2023-05-29T12:55:43;100312.34;;;23.00;28.74
59391;BME280;53405;57.012;40.984;2023-05-29T12:58:12;100324.13;;;22.99;27.89
59391;BME280;53405;57.012;40.984;2023-05-29T13:00:41;100295.00;;;22.85;29.41
59391;BME280;53405;57.012;40.984;2023-05-29T13:03:09;100312.38;;;23.05;27.94
59391;BME280;53405;57.012;40.984;2023-05-29T13:05:38;100317.63;;;22.89;28.85
59391;BME280;53405;57.012;40.984;2023-05-29T13:08:06;100308.94;;;22.82;27.93
59391;BME280;53405;57.012;40.984;2023-05-29T13:10:35;100319.22;;;22.90;28.31
59391;BME280;53405;57.012;40.984;2023-05-29T13:13:03;100311.19;;;22.68;29.43
59391;BME280;53405;57.012;40.984;2023-05-29T13:15:31;100317.38;;;22.69;28.83
59391;BME280;53405;57.012;40.984;2023-05-29T13:18:01;100317.13;;;22.70;28.08
59391;BME280;53405;57.012;40.984;2023-05-29T13:20:29;100290.66;;;22.57;28.88
59391;BME280;53405;57.012;40.984;2023-05-29T13:22:57;100327.41;;;22.79;28.35
59391;BME280;53405;57.012;40.984;2023-05-29T13:25:26;100318.25;;;22.74;28.04
59391;BME280;53405;57.012;40.984;2023-05-29T13:27:54;100323.84;;;22.73;28.28